sensor_id;sensor_type;location;lat;lon;timestamp;P1;durP1;ratioP1;P2;durP2;ratioP2
7205;SDS011;3644;53.480;10.004;2023-08-06T00:02:19;2.13;;;1.90;;
7205;SDS011;3644;53.480;10.004;2023-08-06T00:04:44;2.03;;;1.93;;
7205;SDS011;3644;53.480;10.004;2023-08-06T00:07:10;2.77;;;2.57;;
7205;SDS011;3644;53.480;10.004;2023-08-06T00:09:35;2.70;;;2.50;;
7205;SDS011;3644;53.480;10.004;2023-08-06T00:12:01;3.63;;;2.50;;
7205;SDS011;3644;53.480;10.004;2023-08-06T00:14:26;7.57;;;2.63;;
7205;SDS011;3644;53.480;10.004;2023-08-06T00:16:52;6.57;;;2.73;;
7205;SDS011;3644;53.480;10.004;2023-08-06T00:19:17;4.50;;;3.47;;
7205;SDS011;3644;53.480;10.004;2023-08-06T00:21:43;7.53;;;3.87;;
7205;SDS011;3644;53.480;10.004;2023-08-06T00:24:08;4.60;;;3.70;;
7205;SDS011;3644;53.480;10.004;2023-08-06T00:26:34;4.13;;;3.27;;
7205;SDS011;3644;53.480;10.004;2023-08-06T00:28:59;8.30;;;4.10;;
7205;SDS011;3644;53.480;10.004;2023-08-06T00:31:25;6.97;;;4.63;;
7205;SDS011;3644;53.480;10.004;2023-08-06T00:33:50;3.80;;;3.50;;
7205;SDS011;3644;53.480;10.004;2023-08-06T00:36:16;5.13;;;3.30;;
7205;SDS011;3644;53.480;10.004;2023-08-06T00:38:41;3.63;;;3.33;;
7205;SDS011;3644;53.480;10.004;2023-08-06T00:41:07;4.57;;;3.33;;
7205;SDS011;3644;53.480;10.004;2023-08-06T00:43:32;6.03;;;3.07;;
7205;SDS011;3644;53.480;10.004;2023-08-06T00:45:58;9.90;;;3.70;;
7205;SDS011;3644;53.480;10.004;2023-08-06T00:48:23;3.40;;;3.10;;
7205;SDS011;3644;53.480;10.004;2023-08-06T00:50:49;7.00;;;3.47;;
7205;SDS011;3644;53.480;10.004;2023-08-06T00:53:15;4.63;;;3.50;;
7205;SDS011;3644;53.480;10.004;2023-08-06T00:55:40;4.63;;;3.23;;
7205;SDS011;3644;53.480;10.004;2023-08-06T00:58:09;7.43;;;3.33;;
7205;SDS011;3644;53.480;10.004;2023-08-06T01:00:35;5.93;;;3.13;;
7205;SDS011;3644;53.480;10.004;2023-08-06T01:03:00;4.20;;;3.67;;
7205;SDS011;3644;53.480;10.004;2023-08-06T01:05:26;4.43;;;4.00;;
7205;SDS011;3644;53.480;10.004;2023-08-06T01:11:00;4.53;;;3.80;;
7205;SDS011;3644;53.480;10.004;2023-08-06T01:14:06;7.80;;;4.30;;
7205;SDS011;3644;53.480;10.004;2023-08-06T01:16:40;4.23;;;3.83;;
7205;SDS011;3644;53.480;10.004;2023-08-06T01:19:15;7.10;;;5.07;;
7205;SDS011;3644;53.480;10.004;2023-08-06T01:21:41;8.50;;;4.60;;
7205;SDS011;3644;53.480;10.004;2023-08-06T01:24:07;5.93;;;4.80;;
7205;SDS011;3644;53.480;10.004;2023-08-06T01:26:35;6.20;;;4.50;;
7205;SDS011;3644;53.480;10.004;2023-08-06T01:31:50;5.33;;;4.20;;
7205;SDS011;3644;53.480;10.004;2023-08-06T01:34:17;5.40;;;3.50;;
7205;SDS011;3644;53.480;10.004;2023-08-06T01:36:47;9.00;;;4.07;;
7205;SDS011;3644;53.480;10.004;2023-08-06T01:39:13;5.53;;;3.87;;
7205;SDS011;3644;53.480;10.004;2023-08-06T01:41:39;10.20;;;4.17;;
7205;SDS011;3644;53.480;10.004;2023-08-06T01:44:04;5.67;;;3.80;;
7205;SDS011;3644;53.480;10.004;2023-08-06T01:46:30;6.87;;;4.33;;
7205;SDS011;3644;53.480;10.004;2023-08-06T01:48:56;5.43;;;4.23;;
7205;SDS011;3644;53.480;10.004;2023-08-06T01:51:21;6.57;;;3.97;;
7205;SDS011;3644;53.480;10.004;2023-08-06T01:53:47;5.47;;;4.40;;
7205;SDS011;3644;53.480;10.004;2023-08-06T01:56:12;7.33;;;3.90;;
7205;SDS011;3644;53.480;10.004;2023-08-06T01:58:37;4.90;;;4.00;;
7205;SDS011;3644;53.480;10.004;2023-08-06T02:01:03;4.33;;;3.70;;
7205;SDS011;3644;53.480;10.004;2023-08-06T02:03:28;5.67;;;4.27;;
7205;SDS011;3644;53.480;10.004;2023-08-06T02:05:54;8.03;;;4.07;;
7205;SDS011;3644;53.480;10.004;2023-08-06T02:08:20;4.60;;;3.63;;
7205;SDS011;3644;53.480;10.004;2023-08-06T02:10:45;6.00;;;4.90;;
7205;SDS011;3644;53.480;10.004;2023-08-06T02:13:11;5.10;;;4.40;;
7205;SDS011;3644;53.480;10.004;2023-08-06T02:15:41;5.97;;;3.80;;
7205;SDS011;3644;53.480;10.004;2023-08-06T02:18:12;4.53;;;3.90;;
7205;SDS011;3644;53.480;10.004;2023-08-06T02:20:39;6.60;;;5.50;;
7205;SDS011;3644;53.480;10.004;2023-08-06T02:23:05;10.50;;;4.97;;
7205;SDS011;3644;53.480;10.004;2023-08-06T02:25:30;7.47;;;4.30;;
7205;SDS011;3644;53.480;10.004;2023-08-06T02:27:56;7.67;;;3.50;;
7205;SDS011;3644;53.480;10.004;2023-08-06T02:30:21;5.00;;;4.50;;
7205;SDS011;3644;53.480;10.004;2023-08-06T02:32:47;4.97;;;4.30;;
7205;SDS011;3644;53.480;10.004;2023-08-06T02:35:13;6.57;;;4.20;;
7205;SDS011;3644;53.480;10.004;2023-08-06T02:37:38;3.93;;;3.63;;
7205;SDS011;3644;53.480;10.004;2023-08-06T02:40:04;6.30;;;4.43;;
7205;SDS011;3644;53.480;10.004;2023-08-06T02:42:30;5.60;;;4.60;;
7205;SDS011;3644;53.480;10.004;2023-08-06T02:44:55;6.90;;;4.60;;
7205;SDS011;3644;53.480;10.004;2023-08-06T02:47:21;5.70;;;3.70;;
7205;SDS011;3644;53.480;10.004;2023-08-06T02:49:46;5.77;;;4.40;;
7205;SDS011;3644;53.480;10.004;2023-08-06T02:52:12;8.23;;;5.47;;
7205;SDS011;3644;53.480;10.004;2023-08-06T02:54:37;7.40;;;4.50;;
7205;SDS011;3644;53.480;10.004;2023-08-06T02:57:03;7.40;;;5.20;;
7205;SDS011;3644;53.480;10.004;2023-08-06T02:59:30;9.00;;;4.83;;
7205;SDS011;3644;53.480;10.004;2023-08-06T03:01:55;5.13;;;4.53;;
7205;SDS011;3644;53.480;10.004;2023-08-06T03:04:21;5.23;;;4.73;;
7205;SDS011;3644;53.480;10.004;2023-08-06T03:06:46;8.83;;;5.40;;
7205;SDS011;3644;53.480;10.004;2023-08-06T03:09:13;5.17;;;4.67;;
7205;SDS011;3644;53.480;10.004;2023-08-06T03:11:39;6.70;;;5.30;;
7205;SDS011;3644;53.480;10.004;2023-08-06T03:14:04;8.07;;;4.73;;
7205;SDS011;3644;53.480;10.004;2023-08-06T03:16:30;8.37;;;5.23;;
7205;SDS011;3644;53.480;10.004;2023-08-06T03:18:55;6.17;;;4.77;;
7205;SDS011;3644;53.480;10.004;2023-08-06T03:21:21;6.90;;;5.67;;
7205;SDS011;3644;53.480;10.004;2023-08-06T03:23:47;6.50;;;4.83;;
7205;SDS011;3644;53.480;10.004;2023-08-06T03:26:13;6.10;;;5.33;;
7205;SDS011;3644;53.480;10.004;2023-08-06T03:28:39;10.00;;;6.90;;
7205;SDS011;3644;53.480;10.004;2023-08-06T03:31:04;5.77;;;5.23;;
7205;SDS011;3644;53.480;10.004;2023-08-06T03:33:30;7.53;;;5.70;;
7205;SDS011;3644;53.480;10.004;2023-08-06T03:35:56;7.00;;;5.40;;
7205;SDS011;3644;53.480;10.004;2023-08-06T03:38:22;8.20;;;5.50;;
7205;SDS011;3644;53.480;10.004;2023-08-06T03:40:48;7.40;;;5.23;;
7205;SDS011;3644;53.480;10.004;2023-08-06T03:43:14;6.90;;;5.47;;
7205;SDS011;3644;53.480;10.004;2023-08-06T03:45:42;6.93;;;5.70;;
7205;SDS011;3644;53.480;10.004;2023-08-06T03:48:08;5.53;;;4.93;;
7205;SDS011;3644;53.480;10.004;2023-08-06T03:50:34;8.70;;;5.70;;
7205;SDS011;3644;53.480;10.004;2023-08-06T03:53:00;10.00;;;4.80;;
7205;SDS011;3644;53.480;10.004;2023-08-06T03:55:25;7.23;;;5.10;;
7205;SDS011;3644;53.480;10.004;2023-08-06T03:57:51;7.93;;;5.20;;
7205;SDS011;3644;53.480;10.004;2023-08-06T04:00:16;5.17;;;4.67;;
7205;SDS011;3644;53.480;10.004;2023-08-06T04:02:42;6.20;;;5.30;;
7205;SDS011;3644;53.480;10.004;2023-08-06T04:05:08;6.50;;;5.90;;
7205;SDS011;3644;53.480;10.004;2023-08-06T04:07:33;6.47;;;5.40;;
7205;SDS011;3644;53.480;10.004;2023-08-06T04:10:00;6.77;;;5.63;;
7205;SDS011;3644;53.480;10.004;2023-08-06T04:12:26;5.60;;;5.10;;
7205;SDS011;3644;53.480;10.004;2023-08-06T04:14:52;6.13;;;5.13;;
7205;SDS011;3644;53.480;10.004;2023-08-06T04:17:19;6.50;;;5.70;;
7205;SDS011;3644;53.480;10.004;2023-08-06T04:19:51;5.93;;;5.10;;
7205;SDS011;3644;53.480;10.004;2023-08-06T04:22:18;9.77;;;5.00;;
7205;SDS011;3644;53.480;10.004;2023-08-06T04:24:44;5.27;;;4.63;;
7205;SDS011;3644;53.480;10.004;2023-08-06T04:27:10;7.10;;;5.03;;
7205;SDS011;3644;53.480;10.004;2023-08-06T04:29:37;8.73;;;6.07;;
7205;SDS011;3644;53.480;10.004;2023-08-06T04:32:06;4.97;;;4.57;;
7205;SDS011;3644;53.480;10.004;2023-08-06T04:34:32;7.10;;;5.00;;
7205;SDS011;3644;53.480;10.004;2023-08-06T04:36:59;6.67;;;5.50;;
7205;SDS011;3644;53.480;10.004;2023-08-06T04:39:25;5.63;;;5.03;;
7205;SDS011;3644;53.480;10.004;2023-08-06T04:41:51;10.17;;;5.63;;
7205;SDS011;3644;53.480;10.004;2023-08-06T04:44:16;13.43;;;4.80;;
7205;SDS011;3644;53.480;10.004;2023-08-06T04:46:42;5.67;;;5.03;;
7205;SDS011;3644;53.480;10.004;2023-08-06T04:49:07;6.00;;;4.97;;
7205;SDS011;3644;53.480;10.004;2023-08-06T04:51:33;6.83;;;5.70;;
7205;SDS011;3644;53.480;10.004;2023-08-06T04:53:58;7.07;;;4.90;;
7205;SDS011;3644;53.480;10.004;2023-08-06T04:56:24;8.33;;;4.63;;
7205;SDS011;3644;53.480;10.004;2023-08-06T04:58:50;8.87;;;5.07;;
7205;SDS011;3644;53.480;10.004;2023-08-06T05:01:15;6.17;;;4.23;;
7205;SDS011;3644;53.480;10.004;2023-08-06T05:03:41;4.77;;;4.37;;
7205;SDS011;3644;53.480;10.004;2023-08-06T05:06:06;7.10;;;4.70;;
7205;SDS011;3644;53.480;10.004;2023-08-06T05:08:32;7.30;;;4.83;;
7205;SDS011;3644;53.480;10.004;2023-08-06T05:10:58;8.00;;;4.80;;
7205;SDS011;3644;53.480;10.004;2023-08-06T05:13:23;4.90;;;3.70;;
7205;SDS011;3644;53.480;10.004;2023-08-06T05:15:50;7.80;;;4.33;;
7205;SDS011;3644;53.480;10.004;2023-08-06T05:18:15;5.77;;;4.20;;
7205;SDS011;3644;53.480;10.004;2023-08-06T05:20:42;7.67;;;5.13;;
7205;SDS011;3644;53.480;10.004;2023-08-06T05:23:08;7.93;;;4.57;;
7205;SDS011;3644;53.480;10.004;2023-08-06T05:25:34;4.83;;;4.33;;
7205;SDS011;3644;53.480;10.004;2023-08-06T05:28:00;4.87;;;4.37;;
7205;SDS011;3644;53.480;10.004;2023-08-06T05:30:26;6.00;;;4.80;;
7205;SDS011;3644;53.480;10.004;2023-08-06T05:32:52;4.30;;;3.90;;
7205;SDS011;3644;53.480;10.004;2023-08-06T05:35:17;5.90;;;5.13;;
7205;SDS011;3644;53.480;10.004;2023-08-06T05:37:43;9.47;;;5.00;;
7205;SDS011;3644;53.480;10.004;2023-08-06T05:40:09;5.73;;;4.60;;
7205;SDS011;3644;53.480;10.004;2023-08-06T05:42:34;8.93;;;5.37;;
7205;SDS011;3644;53.480;10.004;2023-08-06T05:45:00;6.67;;;4.13;;
7205;SDS011;3644;53.480;10.004;2023-08-06T05:47:25;9.73;;;6.00;;
7205;SDS011;3644;53.480;10.004;2023-08-06T05:49:51;6.47;;;4.80;;
7205;SDS011;3644;53.480;10.004;2023-08-06T05:52:16;14.97;;;4.83;;
7205;SDS011;3644;53.480;10.004;2023-08-06T05:54:41;5.20;;;4.60;;
7205;SDS011;3644;53.480;10.004;2023-08-06T05:57:07;5.60;;;4.50;;
7205;SDS011;3644;53.480;10.004;2023-08-06T05:59:32;10.43;;;5.00;;
7205;SDS011;3644;53.480;10.004;2023-08-06T06:01:58;6.43;;;5.00;;
7205;SDS011;3644;53.480;10.004;2023-08-06T06:04:24;7.37;;;4.87;;
7205;SDS011;3644;53.480;10.004;2023-08-06T06:06:50;6.90;;;4.67;;
7205;SDS011;3644;53.480;10.004;2023-08-06T06:09:15;7.23;;;5.10;;
7205;SDS011;3644;53.480;10.004;2023-08-06T06:11:41;7.63;;;4.53;;
7205;SDS011;3644;53.480;10.004;2023-08-06T06:14:06;6.60;;;5.20;;
7205;SDS011;3644;53.480;10.004;2023-08-06T06:16:32;9.97;;;4.43;;
7205;SDS011;3644;53.480;10.004;2023-08-06T06:18:57;8.70;;;4.60;;
7205;SDS011;3644;53.480;10.004;2023-08-06T06:21:23;10.93;;;4.90;;
7205;SDS011;3644;53.480;10.004;2023-08-06T06:23:49;5.70;;;4.50;;
7205;SDS011;3644;53.480;10.004;2023-08-06T06:26:16;9.93;;;4.93;;
7205;SDS011;3644;53.480;10.004;2023-08-06T06:28:43;8.97;;;5.33;;
7205;SDS011;3644;53.480;10.004;2023-08-06T06:31:08;4.73;;;4.23;;
7205;SDS011;3644;53.480;10.004;2023-08-06T06:33:34;10.23;;;5.00;;
7205;SDS011;3644;53.480;10.004;2023-08-06T06:36:00;4.90;;;4.43;;
7205;SDS011;3644;53.480;10.004;2023-08-06T06:38:28;6.30;;;4.60;;
7205;SDS011;3644;53.480;10.004;2023-08-06T06:40:56;6.10;;;4.47;;
7205;SDS011;3644;53.480;10.004;2023-08-06T06:43:22;7.57;;;5.00;;
7205;SDS011;3644;53.480;10.004;2023-08-06T06:45:58;6.70;;;4.57;;
7205;SDS011;3644;53.480;10.004;2023-08-06T06:48:25;7.33;;;5.00;;
7205;SDS011;3644;53.480;10.004;2023-08-06T06:50:54;5.90;;;4.27;;
7205;SDS011;3644;53.480;10.004;2023-08-06T06:53:20;6.57;;;4.97;;
7205;SDS011;3644;53.480;10.004;2023-08-06T06:55:51;6.27;;;4.33;;
7205;SDS011;3644;53.480;10.004;2023-08-06T06:58:18;6.70;;;4.80;;
7205;SDS011;3644;53.480;10.004;2023-08-06T07:00:43;7.30;;;5.00;;
7205;SDS011;3644;53.480;10.004;2023-08-06T07:03:10;10.23;;;4.33;;
7205;SDS011;3644;53.480;10.004;2023-08-06T07:05:35;7.73;;;4.57;;
7205;SDS011;3644;53.480;10.004;2023-08-06T07:08:01;6.50;;;4.17;;
7205;SDS011;3644;53.480;10.004;2023-08-06T07:10:26;7.83;;;4.97;;
7205;SDS011;3644;53.480;10.004;2023-08-06T07:12:52;6.37;;;4.47;;
7205;SDS011;3644;53.480;10.004;2023-08-06T07:15:17;8.40;;;4.77;;
7205;SDS011;3644;53.480;10.004;2023-08-06T07:17:43;12.30;;;4.90;;
7205;SDS011;3644;53.480;10.004;2023-08-06T07:20:09;6.13;;;4.17;;
7205;SDS011;3644;53.480;10.004;2023-08-06T07:22:34;6.20;;;4.40;;
7205;SDS011;3644;53.480;10.004;2023-08-06T07:25:00;7.00;;;4.67;;
7205;SDS011;3644;53.480;10.004;2023-08-06T07:27:26;6.97;;;4.90;;
7205;SDS011;3644;53.480;10.004;2023-08-06T07:29:52;13.60;;;4.70;;
7205;SDS011;3644;53.480;10.004;2023-08-06T07:32:17;5.33;;;4.10;;
7205;SDS011;3644;53.480;10.004;2023-08-06T07:34:43;5.50;;;4.60;;
7205;SDS011;3644;53.480;10.004;2023-08-06T07:37:08;5.27;;;4.63;;
7205;SDS011;3644;53.480;10.004;2023-08-06T07:39:34;6.90;;;5.40;;
7205;SDS011;3644;53.480;10.004;2023-08-06T07:42:00;9.50;;;6.00;;
7205;SDS011;3644;53.480;10.004;2023-08-06T07:44:27;6.27;;;4.97;;
7205;SDS011;3644;53.480;10.004;2023-08-06T07:46:52;6.03;;;4.67;;
7205;SDS011;3644;53.480;10.004;2023-08-06T07:49:18;5.10;;;4.30;;
7205;SDS011;3644;53.480;10.004;2023-08-06T07:51:44;6.23;;;4.80;;
7205;SDS011;3644;53.480;10.004;2023-08-06T07:54:09;7.90;;;4.87;;
7205;SDS011;3644;53.480;10.004;2023-08-06T07:56:35;5.77;;;4.20;;
7205;SDS011;3644;53.480;10.004;2023-08-06T07:59:01;5.20;;;3.80;;
7205;SDS011;3644;53.480;10.004;2023-08-06T08:01:27;4.10;;;3.80;;
7205;SDS011;3644;53.480;10.004;2023-08-06T08:03:52;6.93;;;5.30;;
7205;SDS011;3644;53.480;10.004;2023-08-06T08:06:18;5.40;;;4.77;;
7205;SDS011;3644;53.480;10.004;2023-08-06T08:08:43;9.07;;;5.13;;
7205;SDS011;3644;53.480;10.004;2023-08-06T08:11:09;6.57;;;4.70;;
7205;SDS011;3644;53.480;10.004;2023-08-06T08:13:34;5.20;;;4.70;;
7205;SDS011;3644;53.480;10.004;2023-08-06T08:16:00;6.60;;;5.10;;
7205;SDS011;3644;53.480;10.004;2023-08-06T08:18:26;8.10;;;5.47;;
7205;SDS011;3644;53.480;10.004;2023-08-06T08:20:52;7.33;;;5.23;;
7205;SDS011;3644;53.480;10.004;2023-08-06T08:23:17;5.80;;;5.23;;
7205;SDS011;3644;53.480;10.004;2023-08-06T08:25:43;9.33;;;5.47;;
7205;SDS011;3644;53.480;10.004;2023-08-06T08:28:08;9.43;;;5.53;;
7205;SDS011;3644;53.480;10.004;2023-08-06T08:30:34;9.40;;;5.60;;
7205;SDS011;3644;53.480;10.004;2023-08-06T08:32:59;8.97;;;5.87;;
7205;SDS011;3644;53.480;10.004;2023-08-06T08:35:25;8.40;;;6.17;;
7205;SDS011;3644;53.480;10.004;2023-08-06T08:37:51;5.87;;;5.23;;
7205;SDS011;3644;53.480;10.004;2023-08-06T08:40:16;8.47;;;4.73;;
7205;SDS011;3644;53.480;10.004;2023-08-06T08:42:42;8.93;;;4.80;;
7205;SDS011;3644;53.480;10.004;2023-08-06T08:45:12;8.83;;;4.50;;
7205;SDS011;3644;53.480;10.004;2023-08-06T08:47:39;5.70;;;4.50;;
7205;SDS011;3644;53.480;10.004;2023-08-06T08:50:08;5.33;;;4.77;;
7205;SDS011;3644;53.480;10.004;2023-08-06T08:52:39;8.63;;;5.10;;
7205;SDS011;3644;53.480;10.004;2023-08-06T08:55:06;9.00;;;4.63;;
7205;SDS011;3644;53.480;10.004;2023-08-06T08:57:32;7.27;;;5.87;;
7205;SDS011;3644;53.480;10.004;2023-08-06T08:59:58;6.90;;;5.33;;
7205;SDS011;3644;53.480;10.004;2023-08-06T09:02:24;7.43;;;5.70;;
7205;SDS011;3644;53.480;10.004;2023-08-06T09:04:52;13.70;;;5.70;;
7205;SDS011;3644;53.480;10.004;2023-08-06T09:07:19;9.23;;;5.60;;
7205;SDS011;3644;53.480;10.004;2023-08-06T09:09:46;9.10;;;6.20;;
7205;SDS011;3644;53.480;10.004;2023-08-06T09:12:15;8.27;;;6.40;;
7205;SDS011;3644;53.480;10.004;2023-08-06T09:14:41;8.30;;;5.73;;
7205;SDS011;3644;53.480;10.004;2023-08-06T09:17:07;9.50;;;5.73;;
7205;SDS011;3644;53.480;10.004;2023-08-06T09:19:35;14.37;;;5.13;;
7205;SDS011;3644;53.480;10.004;2023-08-06T09:22:01;6.77;;;5.53;;
7205;SDS011;3644;53.480;10.004;2023-08-06T09:24:27;8.70;;;6.90;;
7205;SDS011;3644;53.480;10.004;2023-08-06T09:26:52;12.53;;;6.30;;
7205;SDS011;3644;53.480;10.004;2023-08-06T09:29:19;11.30;;;7.27;;
7205;SDS011;3644;53.480;10.004;2023-08-06T09:31:46;12.63;;;7.63;;
7205;SDS011;3644;53.480;10.004;2023-08-06T09:34:20;14.33;;;7.93;;
7205;SDS011;3644;53.480;10.004;2023-08-06T09:36:48;11.53;;;8.00;;
7205;SDS011;3644;53.480;10.004;2023-08-06T09:39:19;10.07;;;7.40;;
7205;SDS011;3644;53.480;10.004;2023-08-06T09:41:46;9.23;;;6.60;;
7205;SDS011;3644;53.480;10.004;2023-08-06T09:44:18;9.13;;;6.03;;
7205;SDS011;3644;53.480;10.004;2023-08-06T09:46:48;8.50;;;6.60;;
7205;SDS011;3644;53.480;10.004;2023-08-06T09:49:14;8.63;;;6.07;;
7205;SDS011;3644;53.480;10.004;2023-08-06T09:51:40;8.03;;;6.43;;
7205;SDS011;3644;53.480;10.004;2023-08-06T09:54:06;13.63;;;7.00;;
7205;SDS011;3644;53.480;10.004;2023-08-06T09:56:35;11.87;;;6.03;;
7205;SDS011;3644;53.480;10.004;2023-08-06T09:59:04;10.73;;;6.60;;
7205;SDS011;3644;53.480;10.004;2023-08-06T10:01:32;9.17;;;7.37;;
7205;SDS011;3644;53.480;10.004;2023-08-06T10:03:59;6.97;;;5.67;;
7205;SDS011;3644;53.480;10.004;2023-08-06T10:06:28;8.33;;;5.90;;
7205;SDS011;3644;53.480;10.004;2023-08-06T10:08:54;11.70;;;6.20;;
7205;SDS011;3644;53.480;10.004;2023-08-06T10:11:24;8.53;;;5.60;;
7205;SDS011;3644;53.480;10.004;2023-08-06T10:13:53;9.73;;;5.90;;
7205;SDS011;3644;53.480;10.004;2023-08-06T10:16:22;13.83;;;6.53;;
7205;SDS011;3644;53.480;10.004;2023-08-06T10:18:48;12.13;;;5.53;;
7205;SDS011;3644;53.480;10.004;2023-08-06T10:21:15;7.83;;;5.60;;
7205;SDS011;3644;53.480;10.004;2023-08-06T10:23:41;12.00;;;6.33;;
7205;SDS011;3644;53.480;10.004;2023-08-06T10:26:06;8.60;;;5.90;;
7205;SDS011;3644;53.480;10.004;2023-08-06T10:28:36;6.87;;;4.90;;
7205;SDS011;3644;53.480;10.004;2023-08-06T10:31:03;9.00;;;5.97;;
7205;SDS011;3644;53.480;10.004;2023-08-06T10:33:40;9.33;;;5.93;;
7205;SDS011;3644;53.480;10.004;2023-08-06T10:36:10;14.90;;;7.83;;
7205;SDS011;3644;53.480;10.004;2023-08-06T10:38:43;7.37;;;6.60;;
7205;SDS011;3644;53.480;10.004;2023-08-06T10:41:21;8.13;;;6.10;;
7205;SDS011;3644;53.480;10.004;2023-08-06T10:44:06;6.60;;;5.50;;
7205;SDS011;3644;53.480;10.004;2023-08-06T10:46:33;6.77;;;5.00;;
7205;SDS011;3644;53.480;10.004;2023-08-06T10:48:58;6.70;;;4.97;;
7205;SDS011;3644;53.480;10.004;2023-08-06T10:51:24;6.47;;;5.77;;
7205;SDS011;3644;53.480;10.004;2023-08-06T10:53:51;8.70;;;4.73;;
7205;SDS011;3644;53.480;10.004;2023-08-06T10:58:43;7.43;;;4.43;;
7205;SDS011;3644;53.480;10.004;2023-08-06T11:01:10;7.17;;;4.97;;
7205;SDS011;3644;53.480;10.004;2023-08-06T11:03:36;6.10;;;5.50;;
7205;SDS011;3644;53.480;10.004;2023-08-06T11:06:02;8.93;;;5.30;;
7205;SDS011;3644;53.480;10.004;2023-08-06T11:08:28;6.43;;;5.70;;
7205;SDS011;3644;53.480;10.004;2023-08-06T11:11:08;6.17;;;4.63;;
7205;SDS011;3644;53.480;10.004;2023-08-06T11:13:38;15.00;;;5.60;;
7205;SDS011;3644;53.480;10.004;2023-08-06T11:16:08;6.27;;;5.57;;
7205;SDS011;3644;53.480;10.004;2023-08-06T11:18:35;8.97;;;5.23;;
7205;SDS011;3644;53.480;10.004;2023-08-06T11:21:01;5.40;;;4.90;;
7205;SDS011;3644;53.480;10.004;2023-08-06T11:23:27;6.37;;;4.80;;
7205;SDS011;3644;53.480;10.004;2023-08-06T11:25:54;7.57;;;5.30;;
7205;SDS011;3644;53.480;10.004;2023-08-06T11:28:20;9.87;;;5.53;;
7205;SDS011;3644;53.480;10.004;2023-08-06T11:30:46;6.10;;;5.00;;
7205;SDS011;3644;53.480;10.004;2023-08-06T11:33:12;6.03;;;5.43;;
7205;SDS011;3644;53.480;10.004;2023-08-06T11:35:38;7.27;;;5.47;;
7205;SDS011;3644;53.480;10.004;2023-08-06T11:38:04;11.03;;;6.47;;
7205;SDS011;3644;53.480;10.004;2023-08-06T11:40:31;7.00;;;6.30;;
7205;SDS011;3644;53.480;10.004;2023-08-06T11:42:58;5.90;;;4.20;;
7205;SDS011;3644;53.480;10.004;2023-08-06T11:45:24;7.17;;;5.23;;
7205;SDS011;3644;53.480;10.004;2023-08-06T11:47:50;5.37;;;4.87;;
7205;SDS011;3644;53.480;10.004;2023-08-06T11:50:24;8.90;;;5.63;;
7205;SDS011;3644;53.480;10.004;2023-08-06T11:52:57;6.77;;;4.93;;
7205;SDS011;3644;53.480;10.004;2023-08-06T11:55:24;11.83;;;6.93;;
7205;SDS011;3644;53.480;10.004;2023-08-06T11:57:51;10.10;;;5.37;;
7205;SDS011;3644;53.480;10.004;2023-08-06T12:00:17;7.93;;;5.00;;
7205;SDS011;3644;53.480;10.004;2023-08-06T12:02:45;5.30;;;4.80;;
7205;SDS011;3644;53.480;10.004;2023-08-06T12:07:38;5.27;;;4.77;;
7205;SDS011;3644;53.480;10.004;2023-08-06T12:10:06;5.03;;;4.40;;
7205;SDS011;3644;53.480;10.004;2023-08-06T12:12:32;8.53;;;4.90;;
7205;SDS011;3644;53.480;10.004;2023-08-06T12:14:58;8.77;;;4.90;;
7205;SDS011;3644;53.480;10.004;2023-08-06T12:17:24;5.93;;;4.40;;
7205;SDS011;3644;53.480;10.004;2023-08-06T12:19:50;6.30;;;4.27;;
7205;SDS011;3644;53.480;10.004;2023-08-06T12:22:16;7.40;;;4.57;;
7205;SDS011;3644;53.480;10.004;2023-08-06T12:24:45;6.73;;;5.03;;
7205;SDS011;3644;53.480;10.004;2023-08-06T12:27:11;6.90;;;5.80;;
7205;SDS011;3644;53.480;10.004;2023-08-06T12:29:40;8.63;;;5.43;;
7205;SDS011;3644;53.480;10.004;2023-08-06T12:32:06;6.77;;;5.10;;
7205;SDS011;3644;53.480;10.004;2023-08-06T12:34:32;6.90;;;5.20;;
7205;SDS011;3644;53.480;10.004;2023-08-06T12:36:57;5.20;;;4.70;;
7205;SDS011;3644;53.480;10.004;2023-08-06T12:39:23;7.93;;;5.20;;
7205;SDS011;3644;53.480;10.004;2023-08-06T12:41:49;6.53;;;5.77;;
7205;SDS011;3644;53.480;10.004;2023-08-06T12:44:14;6.10;;;4.83;;
7205;SDS011;3644;53.480;10.004;2023-08-06T12:46:40;8.00;;;4.73;;
7205;SDS011;3644;53.480;10.004;2023-08-06T12:49:05;5.27;;;4.73;;
7205;SDS011;3644;53.480;10.004;2023-08-06T12:51:31;5.20;;;4.70;;
7205;SDS011;3644;53.480;10.004;2023-08-06T12:53:58;6.50;;;4.80;;
7205;SDS011;3644;53.480;10.004;2023-08-06T12:56:24;4.70;;;4.30;;
7205;SDS011;3644;53.480;10.004;2023-08-06T12:58:50;5.27;;;3.90;;
7205;SDS011;3644;53.480;10.004;2023-08-06T13:01:15;4.23;;;3.83;;
7205;SDS011;3644;53.480;10.004;2023-08-06T13:03:41;4.90;;;4.40;;
7205;SDS011;3644;53.480;10.004;2023-08-06T13:06:06;6.87;;;4.50;;
7205;SDS011;3644;53.480;10.004;2023-08-06T13:08:32;6.93;;;4.27;;
7205;SDS011;3644;53.480;10.004;2023-08-06T13:10:58;5.47;;;4.10;;
7205;SDS011;3644;53.480;10.004;2023-08-06T13:13:23;8.60;;;3.83;;
7205;SDS011;3644;53.480;10.004;2023-08-06T13:15:51;4.30;;;3.67;;
7205;SDS011;3644;53.480;10.004;2023-08-06T13:18:17;6.47;;;4.17;;
7205;SDS011;3644;53.480;10.004;2023-08-06T13:20:43;6.30;;;3.33;;
7205;SDS011;3644;53.480;10.004;2023-08-06T13:23:08;5.07;;;3.53;;
7205;SDS011;3644;53.480;10.004;2023-08-06T13:25:34;6.03;;;3.80;;
7205;SDS011;3644;53.480;10.004;2023-08-06T13:28:02;4.20;;;3.80;;
7205;SDS011;3644;53.480;10.004;2023-08-06T13:30:28;4.83;;;3.80;;
7205;SDS011;3644;53.480;10.004;2023-08-06T13:32:54;5.73;;;3.30;;
7205;SDS011;3644;53.480;10.004;2023-08-06T13:35:21;6.10;;;3.90;;
7205;SDS011;3644;53.480;10.004;2023-08-06T13:37:47;4.80;;;3.13;;
7205;SDS011;3644;53.480;10.004;2023-08-06T13:40:13;3.33;;;3.00;;
7205;SDS011;3644;53.480;10.004;2023-08-06T13:42:38;5.20;;;4.17;;
7205;SDS011;3644;53.480;10.004;2023-08-06T13:45:05;3.63;;;3.27;;
7205;SDS011;3644;53.480;10.004;2023-08-06T13:47:31;4.60;;;3.80;;
7205;SDS011;3644;53.480;10.004;2023-08-06T13:49:56;4.33;;;3.93;;
7205;SDS011;3644;53.480;10.004;2023-08-06T13:52:22;5.87;;;4.20;;
7205;SDS011;3644;53.480;10.004;2023-08-06T13:54:48;8.23;;;4.33;;
7205;SDS011;3644;53.480;10.004;2023-08-06T13:57:13;6.50;;;4.37;;
7205;SDS011;3644;53.480;10.004;2023-08-06T13:59:39;7.40;;;5.07;;
7205;SDS011;3644;53.480;10.004;2023-08-06T14:02:05;4.80;;;4.30;;
7205;SDS011;3644;53.480;10.004;2023-08-06T14:04:31;4.57;;;3.83;;
7205;SDS011;3644;53.480;10.004;2023-08-06T14:06:56;6.70;;;4.13;;
7205;SDS011;3644;53.480;10.004;2023-08-06T14:09:22;4.37;;;3.63;;
7205;SDS011;3644;53.480;10.004;2023-08-06T14:11:47;5.70;;;3.43;;
7205;SDS011;3644;53.480;10.004;2023-08-06T14:14:13;4.50;;;3.93;;
7205;SDS011;3644;53.480;10.004;2023-08-06T14:16:38;6.37;;;4.20;;
7205;SDS011;3644;53.480;10.004;2023-08-06T14:19:04;6.20;;;4.57;;
7205;SDS011;3644;53.480;10.004;2023-08-06T14:21:29;6.03;;;4.30;;
7205;SDS011;3644;53.480;10.004;2023-08-06T14:23:55;7.07;;;4.30;;
7205;SDS011;3644;53.480;10.004;2023-08-06T14:26:20;5.13;;;3.23;;
7205;SDS011;3644;53.480;10.004;2023-08-06T14:28:46;5.10;;;3.70;;
7205;SDS011;3644;53.480;10.004;2023-08-06T14:31:11;5.07;;;3.67;;
7205;SDS011;3644;53.480;10.004;2023-08-06T14:33:37;3.20;;;2.90;;
7205;SDS011;3644;53.480;10.004;2023-08-06T14:36:03;2.90;;;2.70;;
7205;SDS011;3644;53.480;10.004;2023-08-06T14:38:28;3.40;;;2.90;;
7205;SDS011;3644;53.480;10.004;2023-08-06T14:40:54;5.70;;;3.63;;
7205;SDS011;3644;53.480;10.004;2023-08-06T14:43:19;3.90;;;2.70;;
7205;SDS011;3644;53.480;10.004;2023-08-06T14:45:45;5.63;;;2.90;;
7205;SDS011;3644;53.480;10.004;2023-08-06T14:48:10;3.03;;;2.73;;
7205;SDS011;3644;53.480;10.004;2023-08-06T14:50:36;2.77;;;2.23;;
7205;SDS011;3644;53.480;10.004;2023-08-06T14:53:04;6.40;;;2.90;;
7205;SDS011;3644;53.480;10.004;2023-08-06T14:55:30;2.90;;;2.70;;
7205;SDS011;3644;53.480;10.004;2023-08-06T14:57:56;3.33;;;2.33;;
7205;SDS011;3644;53.480;10.004;2023-08-06T15:00:21;4.23;;;2.33;;
7205;SDS011;3644;53.480;10.004;2023-08-06T15:02:47;2.70;;;2.10;;
7205;SDS011;3644;53.480;10.004;2023-08-06T15:05:12;2.73;;;2.33;;
7205;SDS011;3644;53.480;10.004;2023-08-06T15:07:38;4.20;;;1.70;;